METAR v bližini

 

LIPQ - Ronchi Legionari, Italy
Oddaljenost od postaje: JZ 35km
Podatki zajeti: 01. 12. 2022 15:20
Pretežno oblačno
Pretežno oblačno
 Veter iz smeri VSV
Veter: VSV 9 km/h
Temperatura: 11°C
Temp. rosišča: 2°C
Vlažnost: 54%
Tlak: 1017 hPa
Oblačnost: Pretežno oblačno
Vidljivost: 10 km
Podrobnosti o oblakih: Pretežno oblačno 3658 m
2022/12/01 14:20 LIPQ 011420Z AUTO 07005KT 9999 BKN120/// 11/02 Q1017
LIVT - Trieste, Italy
Oddaljenost od postaje: J 49km
Podatki zajeti: 01. 12. 2022 15:24

 Veter iz smeri VSV
Veter: VSV 31 km/h, Sunek vetra: 69 km/h
Temperatura: 8°C
Občutek mraza zaradi vetra: 3°C
Temp. rosišča: 1°C
Vlažnost: 62%
Tlak: 1016 hPa
2022/12/01 14:24 LIVT 011424Z AUTO 06017G37KT 020V120 //// 08/01 Q1016
 
LIVO - Tarvisio, Italy
Oddaljenost od postaje: SSZ 49km
Podatki zajeti: 01. 12. 2022 14:55
Rahel sneg, Meglice, Delno oblačno
Rahel sneg, Meglice, Delno oblačno
 Veter iz smeri Z
Veter: Z 4 km/h
Temperatura: 1°C
Temp. rosišča: -1°C
Vlažnost: 87%
Tlak: 1018 hPa
Stanje: Rahel sneg, Meglice
Oblačnost: Delno oblačno
Vidljivost: 2 km
Podrobnosti o oblakih: Pretežno oblačno 244 m
Delno oblačno 366 m
2022/12/01 13:55 LIVO 011355Z 27002KT 1500 -SN BR BKN008 SCT012 01/M01 Q1018
LIPI - Rivolto (it-Afb), Italy
Oddaljenost od postaje: ZJZ 57km
Podatki zajeti: 01. 12. 2022 14:55
Delno oblačno
Delno oblačno
 Veter iz smeri VSV
Veter: VSV 22 km/h
Temperatura: 10°C
Občutek mraza zaradi vetra: 7°C
Temp. rosišča: 3°C
Vlažnost: 62%
Tlak: 1016 hPa
Oblačnost: Delno oblačno
Vidljivost: 10 km
Podrobnosti o oblakih: Pretežno oblačno 1829 m
Delno oblačno 2134 m
2022/12/01 13:55 LIPI 011355Z 06012KT 9999 BKN060 SCT070 10/03 Q1016
 
LJLJ - Ljubljana/Brnik, Slovenia
Oddaljenost od postaje: VSV 59km
Podatki zajeti: 01. 12. 2022 15:30
Rahlo dežuje, Oblačno
Rahlo dežuje, Oblačno
 Veter iz smeri spremenljiv
Veter: spremenljiv 4 km/h
Temperatura: 3°C
Temp. rosišča: 2°C
Vlažnost: 93%
Tlak: 1020 hPa
Stanje: Rahlo dežuje
Oblačnost: Oblačno
Vidljivost: 10 km
Podrobnosti o oblakih: Rahlo oblačno 213 m
Delno oblačno 884 m
Oblačno 1280 m
2022/12/01 14:30 LJLJ 011430Z VRB02KT 9999 -RA FEW007 SCT029 OVC042 03/02 Q1020 NOSIG
LJPZ - Portoroz, Slovenia
Oddaljenost od postaje: J 68km
Podatki zajeti: 01. 12. 2022 15:30
Jasno
Jasno
 Veter iz smeri VSV
Veter: VSV 20 km/h
Temperatura: 10°C
Občutek mraza zaradi vetra: 7°C
Temp. rosišča: 1°C
Vlažnost: 54%
Tlak: 1016 hPa
Stanje: Jasno
Vidljivost: večja od 10 km
2022/12/01 14:30 LJPZ 011430Z 07011KT 040V100 CAVOK 10/01 Q1016
 
LOWK - Klagenfurt(Civ/M, Austria
Oddaljenost od postaje: SV 78km
Podatki zajeti: 01. 12. 2022 15:20
Rahlo dežuje, Pretežno oblačno
Rahlo dežuje, Pretežno oblačno
 Veter iz smeri spremenljiv
Veter: spremenljiv 4 km/h
Temperatura: 3°C
Temp. rosišča: 2°C
Vlažnost: 93%
Tlak: 1021 hPa
Stanje: Rahlo dežuje
Oblačnost: Pretežno oblačno
Vidljivost: 10 km
Podrobnosti o oblakih: Rahlo oblačno 91 m
Delno oblačno 183 m
Pretežno oblačno 335 m
2022/12/01 14:20 LOWK 011420Z VRB02KT 9999 -RA FEW003 SCT006 BKN011 03/02 Q1021 TEMPO BKN006
LIPA - Aviano (it/Us-Af, Italy
Oddaljenost od postaje: Z 89km
Podatki zajeti: 01. 12. 2022 14:55
Delno oblačno
Delno oblačno
 Veter iz smeri SSZ
Veter: SSZ 4 km/h
Temperatura: 12°C
Temp. rosišča: 4°C
Vlažnost: 58%
Tlak: 1016 hPa
Oblačnost: Delno oblačno
Vidljivost: 10 km
Podrobnosti o oblakih: Rahlo oblačno 1829 m
Delno oblačno 2438 m
2022/12/01 13:55 LIPA 011355Z 34002KT 9999 FEW060 SCT080 12/04 Q1016
 
LDRI - Rijeka/Omisalj, Croatia
Oddaljenost od postaje: JV 115km
Podatki zajeti: 01. 12. 2022 15:30
Rahlo oblačno
Rahlo oblačno
 Veter iz smeri SV
Veter: SV 22 km/h
Temperatura: 9°C
Občutek mraza zaradi vetra: 6°C
Temp. rosišča: -1°C
Vlažnost: 50%
Tlak: 1016 hPa
Oblačnost: Rahlo oblačno
Vidljivost: 10 km
Podrobnosti o oblakih: Rahlo oblačno 1219 m
2022/12/01 14:30 LDRI 011430Z 04012KT 010V090 9999 FEW040 09/M01 Q1016
LIPZ - Venezia/Tessera, Italy
Oddaljenost od postaje: ZJZ 127km
Podatki zajeti: 01. 12. 2022 15:20
Rahlo oblačno
Rahlo oblačno
 Veter iz smeri SV
Veter: SV 13 km/h
Temperatura: 9°C
Občutek mraza zaradi vetra: 7°C
Temp. rosišča: 3°C
Vlažnost: 66%
Tlak: 1017 hPa
Oblačnost: Rahlo oblačno
Vidljivost: 10 km
Podrobnosti o oblakih: Rahlo oblačno 2134 m
2022/12/01 14:20 LIPZ 011420Z 05007KT 9999 FEW070 09/03 Q1017 NOSIG
 
LDPL - Pula, Croatia
Oddaljenost od postaje: J 133km
Podatki zajeti: 01. 12. 2022 15:30
Jasno
Jasno
 Veter iz smeri SV
Veter: SV 17 km/h
Temperatura: 10°C
Občutek mraza zaradi vetra: 8°C
Temp. rosišča: 2°C
Vlažnost: 58%
Tlak: 1016 hPa
Stanje: Jasno
Vidljivost: večja od 10 km
2022/12/01 14:30 LDPL 011430Z 04009KT 010V070 CAVOK 10/02 Q1016 NOSIG
LIPS - Istrana (it-Afb), Italy
Oddaljenost od postaje: ZJZ 136km
Podatki zajeti: 01. 12. 2022 14:55
Rahlo oblačno
Rahlo oblačno
 Veter iz smeri spremenljiv
Veter: spremenljiv 0 km/h
Temperatura: 11°C
Temp. rosišča: 3°C
Vlažnost: 58%
Tlak: 1017 hPa
Oblačnost: Rahlo oblačno
Vidljivost: 10 km
Podrobnosti o oblakih: Rahlo oblačno 2438 m
2022/12/01 13:55 LIPS 011355Z /////KT 9999 FEW080 11/03 Q1017
 
LIVD - Dobbiaco, Italy
Oddaljenost od postaje: ZSZ 137km
Podatki zajeti: 01. 12. 2022 14:55
Pretežno oblačno
Pretežno oblačno
 Veter iz smeri V
Veter: V 24 km/h
Temperatura: 0°C
Občutek mraza zaradi vetra: -6°C
Temp. rosišča: -2°C
Vlažnost: 87%
Tlak: 1018 hPa
Oblačnost: Pretežno oblačno
Vidljivost: 10 km
Podrobnosti o oblakih: Pretežno oblačno 914 m
2022/12/01 13:55 LIVD 011355Z 08013KT 9999 BKN030 M00/M02 Q1018
LJCE - Cerklje, Slovenia
Oddaljenost od postaje: V 139km
Podatki zajeti: 01. 12. 2022 15:30
Oblačno
Oblačno
 Veter iz smeri Z
Veter: Z 2 km/h
Temperatura: 3°C
Temp. rosišča: 2°C
Vlažnost: 93%
Tlak: 1021 hPa
Oblačnost: Oblačno
Vidljivost: 10 km
Podrobnosti o oblakih: Delno oblačno 152 m
Oblačno 427 m
2022/12/01 14:30 LJCE 011430Z 26001KT 9999 SCT005 OVC014 03/02 Q1021 RMK GRN
 
LOXZ - Zeltweg (mil), Austria
Oddaljenost od postaje: SSV 147km
Podatki zajeti: 01. 12. 2022 15:20
Rahlo dežuje, Sneg, Meglice, Pretežno oblačno
Rahlo dežuje, Sneg, Meglice, Pretežno oblačno
 Veter iz smeri JZ
Veter: JZ 4 km/h
Temperatura: 2°C
Temp. rosišča: 1°C
Vlažnost: 93%
Tlak: 1020 hPa
Stanje: Rahlo dežuje, Sneg, Meglice
Oblačnost: Pretežno oblačno
Vidljivost: 5 km
Podrobnosti o oblakih: Delno oblačno 61 m
Pretežno oblačno 152 m
2022/12/01 14:20 LOXZ 011420Z 23002KT 4500 -RASN BR SCT002 BKN005 02/01 Q1020 NOSIG
sucontract_SNC